Aérodrome :
LOGIN :

S'inscrire | Disclaimer

   EN    FR    IT 

 










Légende :    VFR   VFR Marginal   IFR   IFR Intensif   IFR Très Intensif
Visi : 
Plafond : 
>= 8 km
>= 3000ft
5 à 8 km
1000 à 3000 ft
1500m à 5 km
500 à 1000 ft
800 à 1500m
200 à 500 ft
< 800m
< 200 ft
Symboles :   Orages  Brouillard  Fortes neiges  Fortes précipitations  Vent > 20 kt
SIGMETs :   Divers  Orages  Givrage  Turbulence  Onde Orograph.  Cendres Volcan.






- Altitude de l'aérodrome : 1300 ft
- Code IATA : LIG


LFBL - Limoges

DERNIER METAR :
  • 261630Z AUTO 28008KT 250V310 9999 FEW041 SCT066 06/M01 Q1015 NOSIG

METARs EXPIRÉS :
  • 261600Z AUTO 29007KT 260V340 9999 FEW042 SCT054 BKN070 07/M01 Q1015 TEMPO 28015G25KT SCT020TCU
  • 261530Z AUTO 29008KT 250V320 CAVOK 06/M01 Q1015 TEMPO 28015G25KT SCT020TCU
  • 261500Z AUTO 29010KT CAVOK 06/M01 Q1015 TEMPO 28015G25KT SCT020TCU
  • 261430Z AUTO 29011KT 260V320 9999 SCT046 BKN066 06/M02 Q1015 TEMPO 28015G25KT SCT020TCU
  • 261400Z AUTO 28012G23KT 250V320 9999 SCT045 BKN054 BKN070 07/M03 Q1015 TEMPO SCT020TCU

TAF TAF LFBL
Valide du 26 à 12h jusqu'au 27 à 12h UTC


261100Z 2612/2712 28012KT 9999 BKN024
TEMPO 2612/2617 28015G25KT SCT020TCU
BECMG 2619/2621 BKN012
BECMG 2621/2624 20004KT 4500 BR OVC003
BECMG 2700/2702 -RA
TEMPO 2702/2712 1200 RADZ OVC001
PROB40
TEMPO 2707/2712 20015G30KT
ATIS : +33 5 55 48 40 37



MET'MAP, la Météo Aéronautique d'un coup d'oeil ! - Copyright ORBIFLY Décembre 2007 - Disclaimer

ORBIFLY MET'MAP TEAM :

Programmation & Développement : Alexandra Zaïnal
Sur une idée originale de : Baudouin d'Aumeries
Assistance à la programmation : Marc-Olivier Méhu
Soutien technique & logistique : Manuel Goepfert

Contact : metmap@orbifly.com




SOURCES & CREDITS :

   NOAA